Terminal Aerodrome Forecast
Issued by NWS

Home | Current Version | Previous Version | Text Only | Print | Product List | Glossary On
Versions: 1 2 3 4 5 6 7 8 9 10 11 12 13 14 15 16 17 18 19 20 21 22 23 24 25 26
000
FTUS45 KSLC 022340
TAFLGU
TAF
KLGU 022340Z 0300/0324 21011G17KT P6SM SCT090 SCT200
     FM030200 16011KT P6SM FEW090 BKN200
     FM031700 21015G22KT P6SM SCT090 SCT200=

USA.gov is the U.S. government's official web portal to all federal, state and local government web resources and services.